CheckWX is a tool to help pilots better visualize weather data.  It is not intended as a substitute for an official pre-flight weather briefing.

17:09:24 UTC

LTBA TAF
Atatürk International Airport
Istanbul, Turkey
TAF LTBA 181040Z 1812/1918 02014KT 9999 SCT035 PROB40 TEMPO 1900/1904 -SHRA FEW020CB BKN027 BECMG 1908/1911 CAVOK

Jun-18@
12:00 UTC

Jun-18 @ 12:00 UTC

Jun-19@
08:00 UTC

Jun-19 @ 08:00 UTC

TAF LTBA 181040Z 1812/1918 02014KT 9999 SCT035
Wind
  • 020° at 14 KTS
Cloud Levels
  • Scattered at 3,500' AGL

Jun-19@
00:00 UTC

Jun-19 @ 00:00 UTC

Jun-19@
04:00 UTC

Jun-19 @ 04:00 UTC

PROB40 TEMPO 1900/1904 -SHRA FEW020CB BKN027

Temporary - 40% Likelihood

Temporary - 40% Likelihood during this time.

Conditions
Light Rain
Cloud Levels
  • Few at 2,000' AGL
  • Broken at 2,700' AGL

Jun-19@
08:00 UTC

Jun-19 @ 08:00 UTC

Jun-19@
18:00 UTC

Jun-19 @ 18:00 UTC

BECMG 1908/1911 CAVOK

Becoming

Becoming Conditions expected by Wed, Jun 19, 2019 @ 11:00 UTC

Wind
  • 020° at 14 KTS
Conditions
No significant weather
Cloud Levels
  • No significant clouds